Fredericksbg, Texas
Current Conditions -  °F | °C
As of 4:35 AM on Tuesday 27 Jan 2015 (Local Time) from KT82 Reporting Station
Clear Clear  
Wind Chill: 39°   Ceiling: Unl
Heat Index: 39°   Visibility: 10mi
Dew Point: 33°   Wind: 0mph
Humidity: 78%   Direction: NA
Pressure: 30.18"   Gusts: NA
Location:  30.3069°N, 98.8978°W
Report Text: KT82 271035Z AUTO 00000KT 10SM CLR 04/00 A3018 RMK AO2 T00400004
Loading
Personal Weather Stations






























Interactive Weather Map New forecast layout! Learn more

10-Day Weather Forecast

Advertisements
Track Severe Weather on mobile